Time;durP1;ratioP1;P1;durP2;ratioP2;P2;SDS_P1;SDS_P2;PMS_P1;PMS_P2;Temp;Humidity;BMP_temperature;BMP_pressure;BME280_temperature;BME280_humidity;BME280_pressure;Samples;Min_cycle;Max_cycle;Signal;HPM_P1;HPM_P2
2021/07/11 00:00:10;;;;;;;4.90;2.47;;;16.60;82.60;;;;;;5005635;28;20068;-89
2021/07/11 00:02:36;;;;;;;3.28;2.15;;;16.60;82.30;;;;;;5008706;28;20022;-89
2021/07/11 00:05:06;;;;;;;3.05;2.05;;;16.60;82.20;;;;;;5010315;28;20517;-89
2021/07/11 00:07:31;;;;;;;3.35;2.30;;;16.60;82.00;;;;;;5011572;28;20018;-89
2021/07/11 00:09:58;;;;;;;4.50;2.47;;;16.60;81.90;;;;;;5009650;28;20084;-90
2021/07/11 00:12:25;;;;;;;5.35;2.38;;;16.60;81.70;;;;;;5011666;28;20033;-90
2021/07/11 00:14:50;;;;;;;3.60;2.15;;;16.60;82.30;;;;;;5008924;28;20080;-92
2021/07/11 00:17:16;;;;;;;4.03;2.15;;;16.50;81.50;;;;;;5009634;28;20030;-93
2021/07/11 00:19:42;;;;;;;6.10;2.30;;;16.50;82.30;;;;;;5010595;28;20067;-92
2021/07/11 00:22:08;;;;;;;4.13;2.40;;;16.40;82.30;;;;;;5010587;28;20030;-93
2021/07/11 00:24:38;;;;;;;4.60;2.38;;;16.40;82.50;;;;;;5012181;28;20168;-92
2021/07/11 00:27:04;;;;;;;3.72;2.22;;;16.40;82.60;;;;;;5009806;28;20399;-91
2021/07/11 00:29:29;;;;;;;4.38;2.35;;;16.50;83.00;;;;;;5008976;28;20071;-94
2021/07/11 00:31:55;;;;;;;3.35;2.25;;;16.50;83.30;;;;;;5008976;28;20037;-92
2021/07/11 00:34:21;;;;;;;6.20;2.40;;;16.60;83.00;;;;;;5009068;28;20034;-93
2021/07/11 00:36:46;;;;;;;4.60;2.13;;;16.60;83.30;;;;;;5011384;28;20026;-91
2021/07/11 00:39:12;;;;;;;4.00;2.58;;;16.70;83.60;;;;;;5005679;28;20521;-91
2021/07/11 00:41:39;;;;;;;5.75;2.35;;;16.70;83.60;;;;;;5008072;28;20513;-88
2021/07/11 00:44:06;;;;;;;5.85;2.30;;;16.70;82.60;;;;;;5009163;28;20029;-90
2021/07/11 00:46:35;;;;;;;5.53;2.50;;;16.70;83.80;;;;;;4999686;28;20026;-90
2021/07/11 00:49:05;;;;;;;3.10;2.38;;;16.70;83.00;;;;;;4995060;28;20070;-89
2021/07/11 00:51:31;;;;;;;3.30;2.20;;;16.70;83.10;;;;;;5008406;28;20080;-88
2021/07/11 00:53:57;;;;;;;3.65;2.30;;;16.70;84.10;;;;;;5009738;28;20053;-88
2021/07/11 00:56:23;;;;;;;2.95;2.25;;;16.80;83.50;;;;;;5011343;28;20034;-89
2021/07/11 00:58:48;;;;;;;3.85;2.00;;;16.80;83.20;;;;;;5014194;28;20029;-88
2021/07/11 01:01:38;;;;;;;2.53;1.92;;;16.80;84.00;;;;;;5014092;28;20037;-88
2021/07/11 01:04:13;;;;;;;4.53;2.40;;;16.80;83.50;;;;;;5000355;28;20054;-87
2021/07/11 01:06:42;;;;;;;4.28;2.40;;;16.80;82.50;;;;;;5014635;28;20028;-87
2021/07/11 01:09:11;;;;;;;2.53;2.10;;;16.80;83.20;;;;;;5017703;28;20030;-88
2021/07/11 01:12:00;;;;;;;3.05;2.10;;;16.80;83.10;;;;;;5013922;28;20387;-88
2021/07/11 01:14:29;;;;;;;5.38;2.15;;;16.80;82.60;;;;;;5014017;28;20398;-90
2021/07/11 01:16:57;;;;;;;4.57;2.30;;;16.80;83.80;;;;;;5014020;28;20406;-89
2021/07/11 01:19:50;;;;;;;2.63;2.10;;;16.90;84.00;;;;;;5015349;28;20105;-88
2021/07/11 01:22:21;;;;;;;4.82;2.40;;;16.90;82.90;;;;;;5000739;28;20414;-88
2021/07/11 01:25:01;;;;;;;5.30;2.15;;;16.90;83.50;;;;;;5016065;28;20026;-88
2021/07/11 01:27:30;;;;;;;2.90;2.22;;;16.90;83.10;;;;;;5018023;28;20022;-88
2021/07/11 01:29:57;;;;;;;4.47;2.30;;;16.90;83.50;;;;;;5013937;28;20042;-90
2021/07/11 01:32:24;;;;;;;5.25;2.35;;;16.80;83.30;;;;;;5016066;28;20018;-89
2021/07/11 01:34:50;;;;;;;6.05;2.47;;;16.80;83.20;;;;;;5015547;28;20129;-89
2021/07/11 01:37:17;;;;;;;5.50;2.60;;;16.80;83.20;;;;;;5013866;28;20026;-89
2021/07/11 01:39:44;;;;;;;5.00;2.40;;;16.80;83.40;;;;;;5011685;28;20026;-88
2021/07/11 01:42:11;;;;;;;4.65;2.63;;;16.80;82.60;;;;;;5012587;28;20030;-89
2021/07/11 01:44:39;;;;;;;4.57;2.72;;;16.80;82.80;;;;;;5013725;28;20036;-88
2021/07/11 01:47:06;;;;;;;7.50;2.90;;;16.70;82.60;;;;;;5013822;28;20474;-88
2021/07/11 01:49:33;;;;;;;3.50;2.50;;;16.60;82.40;;;;;;5014300;28;20021;-89
2021/07/11 01:52:00;;;;;;;3.45;2.70;;;16.60;83.10;;;;;;5015106;28;20030;-89
2021/07/11 01:54:29;;;;;;;5.75;2.60;;;16.60;83.00;;;;;;5018599;28;20070;-89
2021/07/11 01:56:54;;;;;;;6.85;2.83;;;16.60;83.50;;;;;;5014875;28;20049;-89
2021/07/11 01:59:20;;;;;;;5.05;2.80;;;16.60;84.00;;;;;;5016105;28;20391;-87
2021/07/11 02:01:46;;;;;;;4.45;2.42;;;16.60;84.30;;;;;;5016223;28;20018;-86
2021/07/11 02:04:12;;;;;;;5.47;2.53;;;16.60;84.70;;;;;;5014867;28;20056;-85
2021/07/11 02:06:38;;;;;;;5.15;2.70;;;16.70;84.80;;;;;;5017039;28;20461;-87
2021/07/11 02:09:07;;;;;;;4.25;2.55;;;16.70;84.80;;;;;;5010011;28;20034;-87
2021/07/11 02:11:36;;;;;;;4.50;2.78;;;16.70;84.70;;;;;;5011657;28;20022;-88
2021/07/11 02:14:16;;;;;;;5.45;2.33;;;16.70;84.40;;;;;;5013319;28;20029;-91
2021/07/11 02:16:48;;;;;;;3.80;2.83;;;16.70;84.20;;;;;;5012784;28;20478;-92
2021/07/11 02:19:16;;;;;;;6.50;2.67;;;16.70;83.90;;;;;;5011904;28;20658;-92
2021/07/11 02:21:42;;;;;;;5.63;2.60;;;16.70;84.20;;;;;;5013417;28;20057;-92
2021/07/11 02:24:08;;;;;;;6.45;2.80;;;16.70;84.20;;;;;;5014636;28;20072;-89
2021/07/11 02:26:38;;;;;;;4.50;2.25;;;16.70;84.30;;;;;;5012518;28;20040;-90
2021/07/11 02:29:06;;;;;;;4.10;2.40;;;16.70;84.10;;;;;;5010557;28;20467;-90
2021/07/11 02:31:39;;;;;;;5.50;2.65;;;16.70;84.80;;;;;;5010887;28;20402;-90
2021/07/11 02:34:06;;;;;;;3.85;2.42;;;16.80;84.30;;;;;;5011647;28;20029;-89
2021/07/11 02:36:33;;;;;;;3.42;2.60;;;16.80;84.30;;;;;;5008153;28;20385;-90
2021/07/11 02:39:06;;;;;;;4.45;2.55;;;16.80;84.50;;;;;;5008386;28;20390;-87
2021/07/11 02:41:35;;;;;;;5.75;2.60;;;16.80;84.10;;;;;;5012770;28;20470;-87
2021/07/11 02:44:05;;;;;;;3.42;2.20;;;16.80;84.70;;;;;;5010832;28;20026;-88
2021/07/11 02:46:40;;;;;;;4.15;2.47;;;16.80;85.30;;;;;;5010729;28;20022;-89
2021/07/11 02:49:10;;;;;;;5.45;2.67;;;16.80;84.60;;;;;;5009536;28;20037;-89
2021/07/11 02:51:40;;;;;;;5.20;2.60;;;16.80;84.70;;;;;;5012912;28;20025;-89
2021/07/11 02:54:06;;;;;;;3.78;2.47;;;16.80;84.60;;;;;;5011898;28;20046;-89
2021/07/11 02:56:38;;;;;;;3.42;2.47;;;16.80;84.10;;;;;;5002384;28;20034;-88
2021/07/11 02:59:05;;;;;;;5.43;2.75;;;16.70;84.30;;;;;;5002272;28;20025;-88
2021/07/11 03:01:32;;;;;;;5.68;3.10;;;16.70;84.70;;;;;;5009962;28;20022;-89
2021/07/11 03:04:01;;;;;;;11.30;7.13;;;16.80;85.20;;;;;;5010323;28;20495;-89
2021/07/11 03:06:26;;;;;;;9.50;4.40;;;16.80;84.60;;;;;;5012447;28;20548;-88
2021/07/11 03:08:52;;;;;;;8.88;4.10;;;16.80;84.50;;;;;;5009441;28;20030;-88
2021/07/11 03:11:18;;;;;;;5.22;2.92;;;16.80;84.50;;;;;;5011552;28;20395;-88
2021/07/11 03:13:46;;;;;;;5.05;3.10;;;16.70;84.30;;;;;;5009592;28;20033;-88
2021/07/11 03:16:12;;;;;;;3.67;2.80;;;16.70;84.40;;;;;;5010509;28;20244;-88
2021/07/11 03:18:39;;;;;;;4.00;2.67;;;16.70;85.00;;;;;;5012813;28;20041;-88
2021/07/11 03:21:07;;;;;;;4.00;2.65;;;16.70;85.20;;;;;;5012042;28;20054;-85
2021/07/11 03:23:35;;;;;;;5.95;3.00;;;16.70;84.90;;;;;;5011782;28;20044;-85
2021/07/11 03:26:01;;;;;;;5.93;3.33;;;16.70;84.40;;;;;;5009874;28;20030;-85
2021/07/11 03:28:30;;;;;;;7.07;3.45;;;16.60;84.10;;;;;;5010036;28;20042;-85
2021/07/11 03:30:56;;;;;;;6.07;3.33;;;16.60;84.10;;;;;;5010238;28;20066;-85
2021/07/11 03:33:24;;;;;;;5.97;3.50;;;16.60;84.70;;;;;;5013076;28;20110;-86
2021/07/11 03:35:59;;;;;;;4.80;3.63;;;16.60;84.70;;;;;;5008896;28;20034;-87
2021/07/11 03:38:34;;;;;;;8.60;3.58;;;16.70;84.20;;;;;;5008594;28;20421;-86
2021/07/11 03:41:01;;;;;;;7.57;3.60;;;16.70;84.40;;;;;;5009893;28;20080;-86
2021/07/11 03:43:31;;;;;;;7.72;3.63;;;16.70;84.30;;;;;;5010053;28;20036;-87
2021/07/11 03:46:00;;;;;;;8.43;3.55;;;16.60;84.20;;;;;;5010594;28;20042;-87
2021/07/11 03:48:31;;;;;;;9.15;3.72;;;16.60;84.40;;;;;;5012658;28;20045;-88
2021/07/11 03:51:02;;;;;;;7.32;3.72;;;16.60;83.80;;;;;;5008543;28;20168;-85
2021/07/11 03:53:30;;;;;;;5.05;3.35;;;16.50;83.60;;;;;;5009579;28;20018;-85
2021/07/11 03:55:58;;;;;;;4.85;2.92;;;16.50;83.60;;;;;;5010976;28;20062;-84
2021/07/11 03:58:25;;;;;;;5.32;3.25;;;16.40;83.70;;;;;;5010312;28;20022;-85
2021/07/11 04:00:52;;;;;;;6.40;3.22;;;16.20;83.10;;;;;;5001811;28;20033;-85
2021/07/11 04:03:19;;;;;;;8.50;3.53;;;16.10;83.70;;;;;;5009910;28;20120;-85
2021/07/11 04:05:46;;;;;;;4.88;3.10;;;16.10;83.90;;;;;;5006094;28;20075;-85
2021/07/11 04:08:15;;;;;;;4.63;3.40;;;15.90;84.20;;;;;;5003684;28;20403;-85
2021/07/11 04:10:42;;;;;;;7.15;3.20;;;16.00;85.60;;;;;;5010017;28;20521;-86
2021/07/11 04:13:08;;;;;;;5.25;3.28;;;16.00;85.80;;;;;;5008174;28;20026;-90
2021/07/11 04:15:35;;;;;;;5.47;3.22;;;16.10;85.40;;;;;;5012402;28;20030;-87
2021/07/11 04:18:07;;;;;;;9.70;3.17;;;16.10;85.80;;;;;;5007118;28;20238;-88
2021/07/11 04:20:34;;;;;;;8.43;3.10;;;16.10;85.50;;;;;;5011157;28;20033;-87
2021/07/11 04:23:01;;;;;;;5.85;2.80;;;16.10;85.30;;;;;;5007550;28;20517;-89
2021/07/11 04:25:36;;;;;;;7.28;3.00;;;16.10;85.80;;;;;;5008784;28;20036;-89
2021/07/11 04:28:03;;;;;;;5.60;2.88;;;16.20;86.00;;;;;;5008347;28;20045;-89
2021/07/11 04:30:29;;;;;;;7.43;3.42;;;16.20;86.10;;;;;;5009853;28;20490;-88
2021/07/11 04:32:56;;;;;;;5.28;3.00;;;16.30;85.90;;;;;;5007610;28;20022;-89
2021/07/11 04:35:21;;;;;;;5.90;3.42;;;16.30;85.90;;;;;;5008863;28;20121;-89
2021/07/11 04:37:47;;;;;;;7.35;3.08;;;16.30;85.80;;;;;;5009495;28;20121;-89
2021/07/11 04:40:13;;;;;;;4.95;2.90;;;16.40;85.80;;;;;;5007742;28;20070;-88
2021/07/11 04:42:39;;;;;;;7.53;3.53;;;16.40;85.90;;;;;;5009879;28;20017;-85
2021/07/11 04:45:06;;;;;;;5.00;2.88;;;16.40;85.60;;;;;;5008427;28;20022;-84
2021/07/11 04:47:32;;;;;;;5.53;2.95;;;16.40;85.40;;;;;;5004485;28;20114;-84
2021/07/11 04:49:58;;;;;;;8.88;4.13;;;16.50;86.10;;;;;;5007938;28;20100;-85
2021/07/11 04:52:24;;;;;;;6.15;3.35;;;16.50;85.70;;;;;;5000151;28;20033;-85
2021/07/11 04:54:49;;;;;;;6.35;3.05;;;16.50;85.40;;;;;;5010368;28;20030;-84
2021/07/11 04:57:15;;;;;;;6.88;3.28;;;16.50;85.50;;;;;;5009525;28;20040;-85
2021/07/11 04:59:41;;;;;;;10.48;3.42;;;16.50;85.40;;;;;;5006205;28;20116;-85
2021/07/11 05:02:07;;;;;;;4.68;3.70;;;16.50;85.30;;;;;;5008387;28;20398;-84
2021/07/11 05:04:33;;;;;;;4.45;3.03;;;16.50;85.10;;;;;;5008086;28;20045;-84
2021/07/11 05:06:58;;;;;;;6.80;2.97;;;16.60;85.20;;;;;;5008009;28;20026;-84
2021/07/11 05:09:24;;;;;;;7.32;3.55;;;16.60;85.40;;;;;;5010364;28;20026;-84
2021/07/11 05:11:50;;;;;;;4.68;2.92;;;16.60;85.80;;;;;;5008125;28;20060;-84
2021/07/11 05:14:16;;;;;;;5.05;3.15;;;16.60;85.30;;;;;;5006431;28;20038;-86
2021/07/11 05:16:42;;;;;;;7.18;3.40;;;16.60;85.30;;;;;;5008354;28;20026;-86
2021/07/11 05:19:09;;;;;;;8.10;3.17;;;16.60;85.30;;;;;;5008248;28;20026;-86
2021/07/11 05:21:35;;;;;;;6.53;3.42;;;16.60;85.00;;;;;;5009727;28;20018;-88
2021/07/11 05:24:01;;;;;;;8.85;3.20;;;16.70;85.40;;;;;;5008648;28;20070;-88
2021/07/11 05:26:27;;;;;;;5.30;3.30;;;16.70;86.30;;;;;;5007979;28;20026;-88
2021/07/11 05:28:53;;;;;;;6.43;3.13;;;16.70;85.50;;;;;;5008991;28;20049;-88
2021/07/11 05:31:19;;;;;;;4.18;2.95;;;16.80;85.60;;;;;;5007968;28;20383;-88
2021/07/11 05:33:45;;;;;;;7.22;3.40;;;16.80;85.60;;;;;;5009113;28;20402;-88
2021/07/11 05:36:11;;;;;;;6.00;3.65;;;16.80;85.40;;;;;;5003445;28;20034;-88
2021/07/11 05:38:38;;;;;;;5.97;3.15;;;16.80;85.20;;;;;;5009477;28;20026;-88
2021/07/11 05:41:04;;;;;;;6.15;3.25;;;16.80;85.40;;;;;;5006281;28;20038;-85
2021/07/11 05:43:31;;;;;;;5.40;3.05;;;16.80;84.90;;;;;;5009193;28;20018;-86
2021/07/11 05:45:56;;;;;;;5.28;3.10;;;16.80;85.00;;;;;;5002876;28;20041;-90
2021/07/11 05:48:22;;;;;;;7.88;3.30;;;16.90;85.30;;;;;;5008396;28;20026;-90
2021/07/11 05:50:48;;;;;;;5.03;3.30;;;16.90;85.40;;;;;;5012660;28;20026;-90
2021/07/11 05:53:14;;;;;;;5.90;3.20;;;16.90;85.10;;;;;;5013085;28;20026;-90
2021/07/11 05:55:41;;;;;;;5.55;2.80;;;16.90;85.10;;;;;;5012780;28;20038;-89
2021/07/11 05:58:07;;;;;;;4.57;2.85;;;16.90;85.10;;;;;;5011061;28;20482;-91
2021/07/11 06:00:34;;;;;;;7.63;3.30;;;17.00;85.50;;;;;;5014417;28;20034;-91
2021/07/11 06:03:00;;;;;;;4.82;3.00;;;17.00;85.20;;;;;;5012572;28;20029;-91
2021/07/11 06:05:26;;;;;;;5.55;3.33;;;17.00;84.90;;;;;;5014066;28;20113;-90
2021/07/11 06:07:52;;;;;;;6.57;3.20;;;17.00;85.10;;;;;;5013336;28;20030;-90
2021/07/11 06:10:17;;;;;;;3.13;2.20;;;17.00;85.10;;;;;;5010532;28;20026;-90
2021/07/11 06:12:44;;;;;;;3.05;2.03;;;17.00;85.40;;;;;;5011984;28;20164;-88
2021/07/11 06:15:10;;;;;;;4.80;2.00;;;17.00;85.10;;;;;;5006591;28;20065;-88
2021/07/11 06:17:37;;;;;;;2.90;2.08;;;17.10;85.30;;;;;;5011132;28;20045;-88
2021/07/11 06:20:09;;;;;;;5.55;2.45;;;17.10;85.30;;;;;;5011318;28;20318;-88
2021/07/11 06:22:36;;;;;;;3.70;2.17;;;17.10;85.30;;;;;;5011985;28;20049;-88
2021/07/11 06:25:07;;;;;;;3.75;2.00;;;17.20;85.10;;;;;;5011131;28;20046;-87
2021/07/11 06:27:35;;;;;;;3.08;2.10;;;17.30;85.10;;;;;;5008208;28;20053;-88
2021/07/11 06:30:03;;;;;;;4.13;2.50;;;17.20;85.00;;;;;;5012353;28;20064;-88
2021/07/11 06:32:28;;;;;;;5.50;2.40;;;17.30;84.80;;;;;;5009327;28;20030;-87
2021/07/11 06:34:54;;;;;;;4.88;2.10;;;17.20;84.90;;;;;;5011958;28;20093;-88
2021/07/11 06:37:19;;;;;;;4.13;1.90;;;17.30;84.90;;;;;;5011302;28;20022;-88
2021/07/11 06:39:45;;;;;;;1.92;1.50;;;17.30;84.90;;;;;;5012749;28;20026;-89
2021/07/11 06:42:11;;;;;;;4.40;1.90;;;17.30;85.30;;;;;;5012181;28;20095;-87
2021/07/11 06:44:36;;;;;;;5.07;1.70;;;17.30;84.80;;;;;;5011548;28;20056;-87
2021/07/11 06:47:03;;;;;;;4.20;1.83;;;17.30;84.70;;;;;;5004066;28;20109;-86
2021/07/11 06:49:29;;;;;;;2.58;1.63;;;17.30;84.80;;;;;;5010583;28;20088;-86
2021/07/11 06:51:54;;;;;;;2.50;1.70;;;17.30;84.60;;;;;;5010473;28;20034;-84
2021/07/11 06:54:20;;;;;;;5.45;2.17;;;17.40;84.60;;;;;;5011454;28;20115;-84
2021/07/11 06:56:46;;;;;;;2.92;1.75;;;17.40;84.50;;;;;;5008875;28;20041;-84
2021/07/11 06:59:11;;;;;;;3.53;1.77;;;17.40;84.70;;;;;;5008665;28;20064;-84
2021/07/11 07:01:37;;;;;;;3.25;2.00;;;17.40;84.40;;;;;;5010431;28;20065;-86
2021/07/11 07:04:03;;;;;;;4.22;2.50;;;17.40;84.40;;;;;;5009366;28;20084;-88
2021/07/11 07:06:29;;;;;;;3.72;2.13;;;17.40;84.40;;;;;;5013155;28;20033;-86
2021/07/11 07:08:54;;;;;;;3.25;2.00;;;17.40;84.50;;;;;;5010801;28;20034;-88
2021/07/11 07:11:20;;;;;;;3.42;1.98;;;17.40;84.60;;;;;;5009043;28;20044;-86
2021/07/11 07:13:45;;;;;;;7.38;2.08;;;17.50;84.90;;;;;;5008614;28;20026;-85
2021/07/11 07:16:11;;;;;;;4.32;2.15;;;17.50;84.70;;;;;;5011320;28;20064;-85
2021/07/11 07:18:37;;;;;;;5.03;2.20;;;17.50;84.90;;;;;;5011591;28;20117;-86
2021/07/11 07:21:02;;;;;;;3.33;2.08;;;17.60;84.90;;;;;;5004257;28;20192;-91
2021/07/11 07:23:28;;;;;;;4.53;2.38;;;17.60;84.40;;;;;;5009232;28;20021;-86
2021/07/11 07:25:53;;;;;;;5.88;2.42;;;17.70;84.50;;;;;;5009369;28;20034;-86
2021/07/11 07:28:19;;;;;;;4.65;2.15;;;17.70;84.30;;;;;;5010010;28;20124;-86
2021/07/11 07:30:45;;;;;;;3.60;1.98;;;17.70;84.40;;;;;;5011991;28;20050;-87
2021/07/11 07:33:10;;;;;;;2.95;2.10;;;17.80;84.30;;;;;;5010648;28;20026;-87
2021/07/11 07:35:36;;;;;;;5.32;2.17;;;17.80;84.00;;;;;;5004512;28;20030;-87
2021/07/11 07:38:02;;;;;;;4.78;2.10;;;17.80;84.10;;;;;;5007943;28;20026;-88
2021/07/11 07:40:28;;;;;;;4.55;2.25;;;17.90;84.30;;;;;;5008095;28;20030;-88
2021/07/11 07:42:53;;;;;;;3.30;1.90;;;18.10;84.70;;;;;;5011792;28;20026;-87
2021/07/11 07:45:19;;;;;;;4.00;1.90;;;18.20;84.10;;;;;;5011363;28;20036;-87
2021/07/11 07:47:45;;;;;;;3.13;2.00;;;18.30;83.70;;;;;;5001552;28;20030;-88
2021/07/11 07:50:12;;;;;;;4.35;1.80;;;18.30;83.70;;;;;;5003734;28;20388;-88
2021/07/11 07:52:38;;;;;;;3.63;2.05;;;18.50;84.20;;;;;;5009035;28;20030;-87
2021/07/11 07:55:05;;;;;;;2.55;1.90;;;18.70;84.10;;;;;;5009439;28;20061;-86
2021/07/11 07:57:31;;;;;;;7.63;2.10;;;18.80;82.80;;;;;;5011387;28;20025;-87
2021/07/11 07:59:56;;;;;;;2.70;2.00;;;18.90;82.20;;;;;;5008366;28;20502;-87
2021/07/11 08:02:23;;;;;;;4.00;2.08;;;18.80;81.30;;;;;;5009511;28;20061;-88
2021/07/11 08:04:48;;;;;;;3.15;1.60;;;18.90;82.30;;;;;;5009067;28;20117;-88
2021/07/11 08:07:14;;;;;;;2.35;1.88;;;18.90;81.50;;;;;;5008150;28;20110;-88
2021/07/11 08:09:40;;;;;;;2.40;1.83;;;18.90;81.60;;;;;;5010463;28;20458;-87
2021/07/11 08:12:06;;;;;;;3.47;2.38;;;19.00;82.10;;;;;;5008315;28;20745;-84
2021/07/11 08:14:32;;;;;;;3.53;2.70;;;19.20;82.80;;;;;;5008542;28;20033;-86
2021/07/11 08:16:58;;;;;;;4.25;3.33;;;19.40;81.70;;;;;;5008443;28;20026;-84
2021/07/11 08:19:25;;;;;;;4.10;3.50;;;19.40;81.10;;;;;;5010096;28;20029;-89
2021/07/11 08:21:53;;;;;;;5.22;3.30;;;19.40;80.60;;;;;;5008944;28;20552;-84
2021/07/11 08:24:21;;;;;;;3.50;3.00;;;19.40;80.80;;;;;;5009131;28;20038;-84
2021/07/11 08:26:46;;;;;;;3.95;3.08;;;19.50;80.60;;;;;;5009140;28;20072;-83
2021/07/11 08:29:12;;;;;;;4.90;3.15;;;19.50;80.40;;;;;;5004412;28;20050;-80
2021/07/11 08:31:37;;;;;;;5.53;3.13;;;19.50;80.20;;;;;;5003550;28;20161;-83
2021/07/11 08:34:05;;;;;;;5.88;2.70;;;19.60;79.60;;;;;;5001870;28;20093;-86
2021/07/11 08:36:31;;;;;;;3.95;2.53;;;19.50;79.20;;;;;;4994021;28;20054;-83
2021/07/11 08:38:58;;;;;;;2.92;2.50;;;19.60;80.30;;;;;;5009771;28;20026;-81
2021/07/11 08:41:25;;;;;;;3.85;2.90;;;19.70;79.40;;;;;;5008620;28;20026;-84
2021/07/11 08:43:52;;;;;;;5.40;3.00;;;19.70;78.50;;;;;;5008055;28;20030;-79
2021/07/11 08:46:18;;;;;;;3.83;2.80;;;19.70;79.70;;;;;;5010334;28;20033;-79
2021/07/11 08:48:47;;;;;;;2.90;2.50;;;19.90;79.60;;;;;;5010827;28;20026;-79
2021/07/11 08:51:13;;;;;;;3.35;2.55;;;20.10;79.50;;;;;;5008507;28;20161;-76
2021/07/11 08:53:40;;;;;;;4.63;2.10;;;20.30;79.70;;;;;;5008490;28;20026;-82
2021/07/11 08:56:19;;;;;;;3.10;2.30;;;20.50;77.90;;;;;;5002853;28;20026;-82
2021/07/11 08:58:50;;;;;;;4.57;2.10;;;20.50;77.80;;;;;;4999107;28;20502;-81
2021/07/11 09:01:24;;;;;;;3.65;2.10;;;20.50;78.00;;;;;;5006451;28;20034;-81
2021/07/11 09:04:03;;;;;;;4.82;2.40;;;20.50;77.20;;;;;;4996216;28;20041;-80
2021/07/11 09:06:48;;;;;;;2.92;2.53;;;20.40;77.20;;;;;;5006580;28;20030;-80
2021/07/11 09:09:31;;;;;;;4.63;2.80;;;20.40;77.40;;;;;;5005196;28;20387;-80
2021/07/11 09:12:05;;;;;;;3.60;1.95;;;20.30;76.50;;;;;;5009789;28;20030;-84
2021/07/11 09:14:36;;;;;;;3.15;2.22;;;20.40;76.10;;;;;;5001751;28;20041;-78
2021/07/11 09:17:04;;;;;;;3.83;2.22;;;20.40;77.00;;;;;;5009765;28;20022;-81
2021/07/11 09:19:34;;;;;;;4.05;2.40;;;20.50;76.30;;;;;;5008858;28;20065;-83
2021/07/11 09:22:01;;;;;;;3.53;2.08;;;20.60;77.30;;;;;;5012571;28;20054;-83
2021/07/11 09:24:28;;;;;;;7.47;3.10;;;20.60;76.10;;;;;;5015807;28;20025;-83
2021/07/11 09:26:56;;;;;;;9.85;5.85;;;20.50;74.60;;;;;;5011943;28;20417;-83
2021/07/11 09:29:29;;;;;;;8.65;3.72;;;20.60;75.20;;;;;;5009336;28;20054;-83
2021/07/11 09:31:54;;;;;;;;;;;20.50;74.60;;;;;;5003743;28;20033;-82
2021/07/11 09:34:23;;;;;;;4.20;2.33;;;20.40;74.90;;;;;;5008894;28;19918;-83
2021/07/11 09:37:11;;;;;;;5.40;3.03;;;20.40;75.60;;;;;;5013165;28;20028;-82
2021/07/11 09:39:46;;;;;;;2.78;2.38;;;20.40;75.10;;;;;;5011446;28;20025;-80
2021/07/11 09:42:29;;;;;;;4.43;2.90;;;20.50;75.10;;;;;;5013035;28;20033;-81
2021/07/11 09:44:56;;;;;;;3.15;2.40;;;20.50;74.90;;;;;;5008437;28;20037;-79
2021/07/11 09:47:24;;;;;;;4.22;2.88;;;20.30;74.30;;;;;;5010198;28;20025;-76
2021/07/11 09:50:01;;;;;;;4.78;3.20;;;20.30;74.50;;;;;;5011250;28;20026;-79
2021/07/11 09:52:29;;;;;;;5.13;2.72;;;20.20;75.30;;;;;;5017179;28;20042;-76
2021/07/11 09:55:19;;;;;;;3.88;2.42;;;20.40;75.30;;;;;;5014312;28;20394;-80
2021/07/11 09:57:48;;;;;;;4.35;2.35;;;20.40;74.50;;;;;;5026683;28;20025;-74
2021/07/11 10:00:19;;;;;;;4.80;3.30;;;20.40;74.30;;;;;;5002066;28;20940;-80
2021/07/11 10:02:47;;;;;;;4.82;2.47;;;20.30;74.30;;;;;;5009564;28;20123;-81
2021/07/11 10:05:14;;;;;;;8.18;4.45;;;20.30;73.50;;;;;;5009755;28;20045;-86
2021/07/11 10:07:40;;;;;;;3.78;2.42;;;20.30;74.20;;;;;;5005295;28;20506;-79
2021/07/11 10:10:08;;;;;;;5.40;2.83;;;20.30;74.20;;;;;;5009778;28;20124;-83
2021/07/11 10:12:34;;;;;;;4.55;2.75;;;20.40;74.40;;;;;;5010210;28;20030;-84
2021/07/11 10:14:59;;;;;;;6.15;3.88;;;20.60;73.90;;;;;;5000982;28;20057;-84
2021/07/11 10:17:27;;;;;;;4.40;3.30;;;20.60;73.60;;;;;;5005311;28;20232;-79
2021/07/11 10:19:54;;;;;;;4.80;3.30;;;20.60;72.80;;;;;;5008284;28;20066;-78
2021/07/11 10:22:21;;;;;;;6.90;4.35;;;20.50;73.10;;;;;;4999850;28;20026;-81
2021/07/11 10:24:48;;;;;;;5.68;3.25;;;20.30;71.50;;;;;;5001375;28;20072;-81
2021/07/11 10:27:28;;;;;;;6.13;4.07;;;20.10;72.10;;;;;;5002381;28;20025;-78
2021/07/11 10:29:56;;;;;;;5.35;3.10;;;20.00;73.60;;;;;;5007673;28;20128;-82
2021/07/11 10:32:33;;;;;;;4.00;3.08;;;19.90;72.90;;;;;;5005660;28;20496;-84
2021/07/11 10:35:14;;;;;;;3.95;2.85;;;19.90;74.50;;;;;;4998927;28;20038;-78
2021/07/11 10:37:47;;;;;;;4.82;3.05;;;19.90;74.30;;;;;;5005659;28;20406;-80
2021/07/11 10:40:24;;;;;;;3.47;2.83;;;19.90;73.70;;;;;;5006824;28;20023;-81
2021/07/11 10:42:50;;;;;;;7.15;3.35;;;19.80;73.70;;;;;;5011727;28;20038;-83
2021/07/11 10:45:18;;;;;;;5.60;2.97;;;19.70;74.70;;;;;;5011581;28;20025;-80
2021/07/11 10:47:44;;;;;;;4.65;2.70;;;19.70;74.40;;;;;;5009178;28;20104;-79
2021/07/11 10:50:32;;;;;;;3.65;2.33;;;19.70;74.30;;;;;;5009096;28;20018;-83
2021/07/11 10:53:00;;;;;;;3.78;2.25;;;19.80;75.00;;;;;;5010578;28;20053;-79
2021/07/11 10:55:37;;;;;;;5.22;3.30;;;19.80;74.50;;;;;;5009082;28;20042;-80
2021/07/11 10:58:17;;;;;;;5.78;3.20;;;19.80;75.30;;;;;;4994848;28;20054;-79
2021/07/11 11:00:44;;;;;;;4.72;2.92;;;19.90;74.70;;;;;;4996948;28;20042;-81
2021/07/11 11:03:18;;;;;;;4.43;2.80;;;20.00;74.90;;;;;;4997554;28;20019;-78
2021/07/11 11:05:45;;;;;;;6.07;3.00;;;20.10;74.90;;;;;;4999117;28;20391;-78
2021/07/11 11:08:13;;;;;;;4.43;2.58;;;20.20;74.40;;;;;;5003867;28;20078;-77
2021/07/11 11:10:40;;;;;;;3.58;2.67;;;20.50;74.50;;;;;;4997803;28;20038;-80
2021/07/11 11:13:16;;;;;;;5.47;3.58;;;20.50;74.00;;;;;;4984231;28;20027;-87
2021/07/11 11:15:53;;;;;;;5.68;3.88;;;20.50;71.90;;;;;;5003629;28;20037;-82
2021/07/11 11:18:29;;;;;;;5.88;3.65;;;20.40;72.50;;;;;;5009608;28;20022;-81
2021/07/11 11:21:01;;;;;;;7.63;4.07;;;20.40;72.70;;;;;;5007231;28;20030;-80
2021/07/11 11:23:34;;;;;;;4.72;3.30;;;20.30;72.40;;;;;;5011674;28;20025;-83
2021/07/11 11:26:01;;;;;;;4.35;2.50;;;20.40;73.70;;;;;;5009055;28;20026;-81
2021/07/11 11:28:33;;;;;;;3.75;2.67;;;20.60;73.60;;;;;;5009524;28;20077;-81
2021/07/11 11:31:05;;;;;;;4.00;3.13;;;20.70;73.00;;;;;;4997277;28;20026;-79
2021/07/11 11:33:45;;;;;;;4.82;3.03;;;20.60;72.10;;;;;;5012516;28;20415;-85
2021/07/11 11:36:10;;;;;;;4.28;3.00;;;20.50;73.40;;;;;;5000651;28;20042;-83
2021/07/11 11:38:43;;;;;;;4.32;2.60;;;20.50;73.00;;;;;;5008416;28;20022;-81
2021/07/11 11:41:19;;;;;;;6.72;3.33;;;20.80;74.70;;;;;;5004642;28;20423;-80
2021/07/11 11:43:48;;;;;;;5.95;4.10;;;21.40;75.60;;;;;;5006534;28;20077;-77
2021/07/11 11:46:30;;;;;;;8.23;5.47;;;21.80;72.30;;;;;;5007868;28;20033;-78
2021/07/11 11:49:08;;;;;;;4.80;3.27;;;22.00;70.50;;;;;;5008495;28;20026;-78
2021/07/11 11:51:35;;;;;;;4.15;2.78;;;21.90;67.90;;;;;;5019319;28;20278;-78
2021/07/11 11:54:01;;;;;;;5.30;2.90;;;21.70;68.20;;;;;;5007958;28;20083;-85
2021/07/11 11:56:27;;;;;;;4.80;2.80;;;21.50;69.70;;;;;;5001696;28;20034;-82
2021/07/11 11:59:04;;;;;;;6.10;2.95;;;21.60;71.50;;;;;;5006402;28;20031;-78
2021/07/11 12:01:35;;;;;;;2.95;2.33;;;22.00;70.70;;;;;;5009128;28;20025;-78
2021/07/11 12:04:12;;;;;;;3.90;2.70;;;22.30;68.40;;;;;;5009172;28;20033;-77
2021/07/11 12:06:39;;;;;;;3.55;2.88;;;22.50;70.00;;;;;;5006774;28;20045;-78
2021/07/11 12:09:06;;;;;;;3.35;2.00;;;22.70;68.30;;;;;;5006845;28;20033;-77
2021/07/11 12:11:32;;;;;;;4.45;2.80;;;22.70;66.90;;;;;;5004887;28;20482;-78
2021/07/11 12:14:24;;;;;;;5.38;3.20;;;22.50;67.00;;;;;;5004393;28;20026;-77
2021/07/11 12:16:58;;;;;;;3.63;2.90;;;22.30;68.10;;;;;;5003135;28;20077;-77
2021/07/11 12:19:24;;;;;;;3.30;2.50;;;22.50;68.10;;;;;;4995866;28;20028;-78
2021/07/11 12:21:51;;;;;;;3.20;2.00;;;22.60;68.60;;;;;;4992739;28;20031;-78
2021/07/11 12:24:20;;;;;;;3.00;2.05;;;22.80;68.20;;;;;;5009465;28;20026;-78
2021/07/11 12:26:49;;;;;;;3.63;2.30;;;23.10;67.30;;;;;;4997653;28;20073;-78
2021/07/11 12:29:19;;;;;;;4.57;2.50;;;23.40;65.30;;;;;;5004695;28;20149;-79
2021/07/11 12:31:45;;;;;;;4.47;2.20;;;23.50;64.10;;;;;;5011739;28;20113;-78
2021/07/11 12:34:17;;;;;;;2.10;1.90;;;23.50;62.70;;;;;;5007632;28;20027;-80
2021/07/11 12:36:55;;;;;;;3.90;1.95;;;23.30;63.10;;;;;;5001969;28;20034;-79
2021/07/11 12:39:23;;;;;;;5.28;2.17;;;23.50;64.30;;;;;;5006124;28;20502;-78
2021/07/11 12:41:49;;;;;;;3.28;2.10;;;23.70;64.90;;;;;;4996412;28;20018;-79
2021/07/11 12:44:17;;;;;;;2.92;2.08;;;24.00;64.60;;;;;;4997245;28;20110;-79
2021/07/11 12:46:43;;;;;;;3.75;2.17;;;24.30;62.40;;;;;;5004518;28;20050;-79
2021/07/11 12:49:12;;;;;;;2.33;1.85;;;24.30;61.90;;;;;;5009559;28;20058;-80
2021/07/11 12:51:48;;;;;;;2.95;1.80;;;24.00;59.80;;;;;;5000522;28;20057;-79
2021/07/11 12:54:22;;;;;;;3.05;1.98;;;23.90;62.80;;;;;;4996140;28;20038;-79